createdAt,value
2022-08-25T00:00:14.232Z,89.19
2022-08-25T00:02:45.543Z,89.07
2022-08-25T00:05:26.303Z,88.93
2022-08-25T00:07:55.066Z,89.14
2022-08-25T00:10:22.136Z,88.97
2022-08-25T00:12:49.337Z,89.44
2022-08-25T00:15:16.580Z,89.58
2022-08-25T00:17:43.716Z,89.56
2022-08-25T00:20:11.110Z,90.26
2022-08-25T00:22:38.259Z,90.42
2022-08-25T00:25:05.808Z,90.58
2022-08-25T00:27:32.825Z,90.80
2022-08-25T00:30:00.546Z,90.91
2022-08-25T00:32:28.187Z,90.94
2022-08-25T00:34:55.377Z,90.96
2022-08-25T00:37:22.467Z,90.76
2022-08-25T00:39:49.735Z,90.77
2022-08-25T00:42:17.114Z,90.73
2022-08-25T00:44:44.338Z,90.60
2022-08-25T00:47:11.485Z,90.71
2022-08-25T00:49:46.186Z,90.96
2022-08-25T00:52:38.138Z,90.95
2022-08-25T00:55:11.766Z,90.74
2022-08-25T00:58:14.327Z,90.83
2022-08-25T01:00:45.115Z,90.54
2022-08-25T01:03:12.526Z,90.78
2022-08-25T01:05:41.789Z,90.84
2022-08-25T01:08:10.170Z,91.18
2022-08-25T01:10:41.506Z,91.48
2022-08-25T01:13:18.835Z,91.41
2022-08-25T01:15:48.419Z,91.58
2022-08-25T01:18:16.267Z,91.48
2022-08-25T01:20:43.726Z,91.80
2022-08-25T01:23:11.027Z,91.79
2022-08-25T01:26:00.445Z,92.23
2022-08-25T01:28:27.790Z,91.96
2022-08-25T01:30:55.152Z,92.09
2022-08-25T01:33:23.346Z,92.10
2022-08-25T01:35:50.592Z,92.13
2022-08-25T01:38:18.715Z,92.02
2022-08-25T01:40:45.873Z,91.87
2022-08-25T01:43:15.747Z,91.80
2022-08-25T01:45:47.770Z,91.56
2022-08-25T01:48:16.867Z,91.30
2022-08-25T01:50:44.432Z,91.24
2022-08-25T01:53:28.714Z,91.61
2022-08-25T01:56:02.752Z,91.50
2022-08-25T01:58:33.939Z,91.48
2022-08-25T02:01:04.140Z,91.70
2022-08-25T02:03:32.521Z,92.03
2022-08-25T02:06:00.180Z,91.49
2022-08-25T02:08:27.468Z,91.90
2022-08-25T02:10:55.941Z,92.17
2022-08-25T02:13:26.938Z,92.49
2022-08-25T02:16:02.061Z,92.12
2022-08-25T02:18:29.588Z,92.47
2022-08-25T02:20:56.832Z,92.27
2022-08-25T02:23:24.015Z,92.46
2022-08-25T02:25:51.258Z,92.39
2022-08-25T02:28:18.536Z,92.45
2022-08-25T02:30:46.270Z,92.68
2022-08-25T02:33:13.387Z,92.78
2022-08-25T02:35:40.568Z,92.92
2022-08-25T02:38:07.968Z,92.90
2022-08-25T02:40:35.255Z,92.88
2022-08-25T02:43:02.490Z,93.07
2022-08-25T02:45:29.976Z,93.15
2022-08-25T02:47:57.291Z,93.41
2022-08-25T02:50:25.172Z,93.44
2022-08-25T02:52:52.856Z,93.28
2022-08-25T02:55:20.365Z,93.40
2022-08-25T02:57:48.485Z,93.37
2022-08-25T03:00:17.456Z,93.57
2022-08-25T03:02:46.851Z,93.84
2022-08-25T03:05:15.643Z,93.74
2022-08-25T03:07:43.191Z,93.57
2022-08-25T03:10:15.639Z,93.67
2022-08-25T03:12:42.807Z,94.03
2022-08-25T03:15:12.941Z,93.83
2022-08-25T03:17:40.916Z,93.68
2022-08-25T03:20:13.337Z,93.55
2022-08-25T03:22:40.681Z,93.37
2022-08-25T03:25:26.659Z,93.42
2022-08-25T03:27:54.026Z,93.63
2022-08-25T03:30:21.529Z,93.79
2022-08-25T03:32:48.825Z,94.07
2022-08-25T03:35:16.004Z,94.23
2022-08-25T03:37:43.129Z,94.28
2022-08-25T03:40:15.220Z,94.18
2022-08-25T03:42:46.972Z,94.60
2022-08-25T03:45:16.691Z,94.52
2022-08-25T03:47:47.085Z,94.51
2022-08-25T03:50:16.476Z,94.54
2022-08-25T03:52:43.726Z,94.57
2022-08-25T03:55:13.822Z,94.43
2022-08-25T03:57:41.145Z,94.17
2022-08-25T04:00:10.542Z,94.50
2022-08-25T04:02:41.441Z,94.06
2022-08-25T04:05:09.378Z,94.32
2022-08-25T04:07:36.608Z,94.18
2022-08-25T04:10:05.987Z,94.31
2022-08-25T04:12:33.437Z,94.43
2022-08-25T04:15:01.391Z,94.44
2022-08-25T04:17:28.697Z,94.78
2022-08-25T04:19:55.985Z,94.72
2022-08-25T04:22:23.299Z,94.44
2022-08-25T04:24:50.492Z,94.72
2022-08-25T04:27:17.627Z,94.65
2022-08-25T04:29:44.865Z,94.61
2022-08-25T04:32:12.135Z,94.88
2022-08-25T04:34:39.325Z,95.12
2022-08-25T04:37:07.951Z,94.95
2022-08-25T04:39:35.329Z,94.79
2022-08-25T04:42:02.816Z,94.77
2022-08-25T04:44:31.098Z,94.53
2022-08-25T04:46:58.574Z,94.60
2022-08-25T04:49:25.818Z,94.48
2022-08-25T04:51:52.933Z,94.46
2022-08-25T04:54:23.379Z,94.30
2022-08-25T04:56:54.651Z,94.17
2022-08-25T04:59:29.526Z,94.23
2022-08-25T05:02:02.798Z,93.84
2022-08-25T05:04:31.398Z,93.85
2022-08-25T05:06:58.856Z,93.35
2022-08-25T05:09:26.749Z,94.06
2022-08-25T05:11:54.953Z,94.08
2022-08-25T05:14:26.480Z,94.20
2022-08-25T05:16:54.830Z,93.98
2022-08-25T05:19:24.434Z,93.86
2022-08-25T05:21:52.185Z,93.97
2022-08-25T05:24:19.601Z,94.14
2022-08-25T05:26:46.982Z,93.75
2022-08-25T05:29:14.615Z,93.88
2022-08-25T05:31:48.307Z,93.82
2022-08-25T05:34:19.113Z,93.40
2022-08-25T05:36:47.216Z,93.38
2022-08-25T05:39:14.890Z,93.43
2022-08-25T05:41:42.047Z,93.15
2022-08-25T05:44:09.290Z,93.06
2022-08-25T05:46:36.530Z,93.05
2022-08-25T05:49:03.851Z,93.02
2022-08-25T05:51:30.975Z,92.79
2022-08-25T05:53:58.139Z,93.14
2022-08-25T05:56:25.268Z,92.95
2022-08-25T05:58:52.546Z,92.99
2022-08-25T06:01:47.097Z,92.93
2022-08-25T06:04:17.950Z,93.18
2022-08-25T06:06:45.264Z,93.03
2022-08-25T06:09:12.547Z,92.77
2022-08-25T06:11:41.111Z,92.61
2022-08-25T06:14:10.132Z,92.44
2022-08-25T06:16:39.380Z,92.20
2022-08-25T06:19:09.211Z,91.73
2022-08-25T06:21:39.314Z,91.88
2022-08-25T06:24:09.974Z,91.60
2022-08-25T06:26:39.241Z,91.51
2022-08-25T06:29:06.332Z,91.51
2022-08-25T06:31:33.575Z,91.25
2022-08-25T06:34:00.846Z,90.89
2022-08-25T06:36:28.498Z,90.99
2022-08-25T06:38:55.553Z,90.71
2022-08-25T06:41:22.786Z,90.59
2022-08-25T06:43:54.158Z,90.39
2022-08-25T06:46:35.652Z,90.43
2022-08-25T06:49:03.938Z,90.32
2022-08-25T06:51:31.156Z,90.34
2022-08-25T06:53:58.202Z,90.58
2022-08-25T06:56:26.596Z,90.49
2022-08-25T06:58:53.840Z,90.38
2022-08-25T07:01:26.468Z,90.40
2022-08-25T07:03:59.982Z,90.21
2022-08-25T07:06:29.191Z,89.93
2022-08-25T07:08:56.306Z,90.06
2022-08-25T07:11:24.399Z,89.90
2022-08-25T07:13:52.096Z,89.81
2022-08-25T07:16:20.858Z,89.95
2022-08-25T07:18:49.022Z,89.69
2022-08-25T07:21:16.870Z,89.88
2022-08-25T07:23:44.751Z,89.63
2022-08-25T07:29:32.748Z,89.89
2022-08-25T07:32:02.035Z,89.50
2022-08-25T07:34:52.619Z,89.60
2022-08-25T07:37:48.964Z,89.30
2022-08-25T07:40:22.725Z,89.19
2022-08-25T07:42:54.199Z,88.84
2022-08-25T07:45:25.688Z,88.52
2022-08-25T07:47:54.059Z,88.47
2022-08-25T07:50:23.320Z,88.26
2022-08-25T07:52:55.078Z,88.16
2022-08-25T07:55:27.405Z,88.15
2022-08-25T07:57:57.080Z,87.96
2022-08-25T08:00:28.071Z,87.83
2022-08-25T08:02:56.175Z,87.69
2022-08-25T08:05:24.929Z,87.37
2022-08-25T08:07:53.942Z,86.97
2022-08-25T08:10:54.018Z,86.45
2022-08-25T08:13:10.461Z,86.23
2022-08-25T08:15:38.152Z,86.11
2022-08-25T08:18:07.181Z,86.03
2022-08-25T08:20:42.845Z,85.41
2022-08-25T08:23:11.513Z,84.37
2022-08-25T08:25:38.702Z,83.80
2022-08-25T08:28:07.449Z,82.88
2022-08-25T08:30:36.811Z,82.38
2022-08-25T08:33:10.223Z,82.06
2022-08-25T08:35:40.561Z,81.45
2022-08-25T08:38:14.911Z,80.65
2022-08-25T08:41:22.949Z,80.98
2022-08-25T08:44:01.741Z,79.45
2022-08-25T08:46:43.683Z,78.22
2022-08-25T08:49:26.836Z,76.28
2022-08-25T08:52:01.326Z,75.39
2022-08-25T08:54:36.367Z,75.18
2022-08-25T08:57:18.331Z,74.98
2022-08-25T09:00:03.189Z,74.75
2022-08-25T09:02:51.429Z,75.01
2022-08-25T09:05:23.007Z,75.70
2022-08-25T09:07:56.289Z,75.60
2022-08-25T09:10:26.911Z,75.48
2022-08-25T09:13:18.816Z,75.72
2022-08-25T09:16:25.234Z,75.38
2022-08-25T09:19:23.341Z,75.59
2022-08-25T09:21:53.777Z,75.89
2022-08-25T09:24:40.547Z,76.09
2022-08-25T09:27:22.595Z,76.67
2022-08-25T09:30:07.495Z,76.75
2022-08-25T09:33:05.101Z,77.12
2022-08-25T09:35:36.102Z,77.44
2022-08-25T09:38:07.854Z,77.27
2022-08-25T09:40:42.566Z,77.36
2022-08-25T09:43:34.369Z,77.88
2022-08-25T09:46:03.439Z,77.75
2022-08-25T09:48:40.983Z,77.90
2022-08-25T09:51:19.817Z,77.88
2022-08-25T09:54:10.728Z,77.56
2022-08-25T09:56:50.504Z,77.35
2022-08-25T09:59:34.267Z,77.40
2022-08-25T10:02:29.215Z,76.70
2022-08-25T10:04:56.774Z,76.30
2022-08-25T10:07:39.891Z,76.71
2022-08-25T10:10:18.621Z,75.75
2022-08-25T10:12:51.232Z,75.43
2022-08-25T10:15:30.317Z,74.83
2022-08-25T10:18:25.952Z,72.75
2022-08-25T10:21:17.637Z,71.03
2022-08-25T10:23:50.172Z,69.95
2022-08-25T10:26:34.826Z,68.51
2022-08-25T10:29:23.967Z,68.84
2022-08-25T10:31:59.656Z,68.41
2022-08-25T10:34:34.898Z,67.60
2022-08-25T10:37:11.092Z,66.56
2022-08-25T10:39:46.255Z,66.75
2022-08-25T10:42:32.223Z,65.76
2022-08-25T10:45:40.696Z,64.55
2022-08-25T10:48:32.278Z,64.03
2022-08-25T10:51:14.612Z,62.92
2022-08-25T10:53:56.930Z,62.18
2022-08-25T10:56:29.648Z,62.17
2022-08-25T10:59:22.573Z,60.93
2022-08-25T11:02:08.568Z,59.52
2022-08-25T11:04:42.952Z,60.39
2022-08-25T11:07:38.378Z,59.69
2022-08-25T11:10:10.020Z,60.04
2022-08-25T11:13:00.074Z,59.62
2022-08-25T11:16:00.211Z,58.60
2022-08-25T11:18:33.198Z,58.51
2022-08-25T11:21:20.581Z,59.81
2022-08-25T11:24:18.658Z,59.81
2022-08-25T11:26:54.857Z,58.44
2022-08-25T11:29:24.818Z,58.59
2022-08-25T11:31:54.087Z,57.65
2022-08-25T11:34:22.716Z,58.21
2022-08-25T11:37:11.142Z,57.57
2022-08-25T11:40:03.991Z,57.34
2022-08-25T11:42:59.872Z,57.35
2022-08-25T11:45:54.398Z,57.03
2022-08-25T11:48:24.626Z,57.16
2022-08-25T11:51:06.948Z,56.43
2022-08-25T11:53:43.549Z,56.68
2022-08-25T11:56:32.673Z,56.25
2022-08-25T11:59:02.059Z,55.87
2022-08-25T12:01:43.335Z,55.61
2022-08-25T12:04:35.654Z,56.78
2022-08-25T12:07:17.906Z,56.18
2022-08-25T12:09:51.423Z,56.25
2022-08-25T12:12:56.905Z,56.09
2022-08-25T12:15:26.646Z,57.09
2022-08-25T12:18:15.285Z,56.55
2022-08-25T12:20:57.338Z,57.07
2022-08-25T12:24:02.600Z,56.50
2022-08-25T12:26:48.198Z,56.52
2022-08-25T12:29:27.615Z,57.32
2022-08-25T12:32:04.714Z,57.87
2022-08-25T12:34:47.233Z,56.58
2022-08-25T12:37:18.067Z,55.09
2022-08-25T12:39:51.390Z,54.89
2022-08-25T12:42:43.546Z,55.28
2022-08-25T12:45:39.210Z,56.24
2022-08-25T12:48:28.088Z,56.16
2022-08-25T12:51:01.250Z,56.02
2022-08-25T12:53:44.250Z,55.28
2022-08-25T12:56:39.160Z,56.33
2022-08-25T12:59:48.711Z,56.84
2022-08-25T13:02:34.303Z,55.71
2022-08-25T13:05:16.455Z,56.25
2022-08-25T13:08:15.301Z,56.51
2022-08-25T13:10:51.139Z,57.40
2022-08-25T13:13:57.871Z,56.15
2022-08-25T13:16:29.727Z,56.11
2022-08-25T13:19:01.784Z,56.78
2022-08-25T13:21:30.965Z,57.32
2022-08-25T13:24:05.034Z,57.58
2022-08-25T13:26:37.707Z,57.46
2022-08-25T13:29:24.648Z,56.98
2022-08-25T13:32:09.457Z,56.70
2022-08-25T13:34:42.552Z,56.84
2022-08-25T13:37:29.716Z,56.30
2022-08-25T13:40:24.767Z,56.07
2022-08-25T13:43:01.063Z,57.21
2022-08-25T13:45:32.294Z,56.80
2022-08-25T13:47:59.777Z,56.85
2022-08-25T13:50:27.180Z,56.48
2022-08-25T13:53:02.091Z,56.86
2022-08-25T13:55:38.128Z,56.84
2022-08-25T13:58:39.487Z,56.21
2022-08-25T14:01:48.205Z,55.75
2022-08-25T14:04:21.067Z,56.37
2022-08-25T14:06:48.876Z,55.75
2022-08-25T14:09:28.142Z,56.67
2022-08-25T14:11:58.778Z,57.44
2022-08-25T14:14:25.910Z,56.90
2022-08-25T14:17:08.212Z,57.22
2022-08-25T14:19:49.239Z,57.46
2022-08-25T14:22:16.441Z,57.14
2022-08-25T14:24:44.109Z,57.53
2022-08-25T14:27:11.995Z,57.64
2022-08-25T14:29:41.179Z,57.83
2022-08-25T14:32:10.066Z,57.79
2022-08-25T14:34:39.654Z,57.22
2022-08-25T14:37:18.159Z,57.94
2022-08-25T14:39:46.050Z,57.83
2022-08-25T14:42:13.948Z,56.70
2022-08-25T14:44:41.364Z,57.04
2022-08-25T14:47:09.471Z,57.60
2022-08-25T14:49:40.949Z,57.54
2022-08-25T14:52:22.726Z,56.63
2022-08-25T14:54:50.867Z,56.29
2022-08-25T14:57:18.572Z,56.07
2022-08-25T14:59:46.443Z,56.14
2022-08-25T15:02:19.893Z,56.78
2022-08-25T15:05:00.673Z,57.19
2022-08-25T15:07:50.578Z,57.59
2022-08-25T15:10:17.916Z,57.19
2022-08-25T15:12:47.890Z,57.17
2022-08-25T15:15:15.459Z,57.22
2022-08-25T15:17:45.559Z,57.16
2022-08-25T15:20:13.038Z,57.23
2022-08-25T15:22:42.565Z,57.28
2022-08-25T15:25:11.412Z,57.38
2022-08-25T15:27:38.588Z,57.01
2022-08-25T15:30:07.032Z,57.35
2022-08-25T15:32:34.346Z,57.83
2022-08-25T15:35:01.506Z,58.27
2022-08-25T15:37:29.171Z,58.94
2022-08-25T15:39:56.891Z,59.00
2022-08-25T15:42:25.698Z,59.47
2022-08-25T15:44:54.116Z,58.75
2022-08-25T15:47:22.577Z,58.58
2022-08-25T15:49:49.904Z,58.61
2022-08-25T15:52:17.437Z,57.81
2022-08-25T15:54:45.208Z,57.82
2022-08-25T15:57:16.279Z,58.04
2022-08-25T15:59:53.241Z,57.64
2022-08-25T16:02:21.809Z,57.37
2022-08-25T16:04:51.019Z,57.48
2022-08-25T16:07:18.421Z,57.83
2022-08-25T16:09:47.035Z,58.00
2022-08-25T16:12:14.544Z,58.24
2022-08-25T16:14:41.772Z,58.13
2022-08-25T16:17:09.065Z,57.99
2022-08-25T16:19:38.115Z,57.30
2022-08-25T16:22:08.847Z,57.51
2022-08-25T16:24:44.528Z,57.88
2022-08-25T16:27:13.699Z,58.27
2022-08-25T16:29:42.985Z,58.65
2022-08-25T16:32:13.389Z,59.19
2022-08-25T16:34:41.830Z,59.65
2022-08-25T16:37:09.238Z,59.84
2022-08-25T16:39:37.221Z,59.78
2022-08-25T16:42:07.286Z,60.50
2022-08-25T16:44:34.692Z,60.95
2022-08-25T16:47:02.994Z,60.76
2022-08-25T16:49:31.300Z,61.16
2022-08-25T16:51:58.565Z,61.24
2022-08-25T16:54:45.652Z,61.28
2022-08-25T16:57:13.328Z,61.65
2022-08-25T16:59:43.904Z,61.47
2022-08-25T17:02:11.360Z,61.97
2022-08-25T17:04:39.036Z,61.87
2022-08-25T17:07:07.894Z,62.38
2022-08-25T17:09:35.260Z,62.72
2022-08-25T17:12:02.665Z,62.99
2022-08-25T17:14:29.809Z,63.20
2022-08-25T17:16:58.050Z,63.47
2022-08-25T17:19:26.065Z,63.95
2022-08-25T17:21:54.919Z,64.06
2022-08-25T17:24:22.551Z,64.34
2022-08-25T17:26:57.086Z,64.20
2022-08-25T17:29:24.816Z,64.47
2022-08-25T17:31:52.350Z,64.84
2022-08-25T17:34:23.080Z,65.12
2022-08-25T17:36:50.973Z,65.50
2022-08-25T17:39:19.903Z,65.94
2022-08-25T17:41:50.942Z,66.35
2022-08-25T17:44:19.514Z,66.25
2022-08-25T17:46:48.068Z,66.33
2022-08-25T17:49:17.313Z,66.70
2022-08-25T17:51:45.507Z,67.03
2022-08-25T17:54:13.066Z,67.06
2022-08-25T17:56:40.976Z,67.13
2022-08-25T17:59:08.708Z,67.75
2022-08-25T18:01:40.184Z,67.85
2022-08-25T18:04:17.351Z,68.20
2022-08-25T18:06:47.763Z,68.49
2022-08-25T18:09:16.315Z,69.00
2022-08-25T18:11:45.640Z,69.11
2022-08-25T18:14:16.864Z,69.32
2022-08-25T18:16:44.336Z,69.40
2022-08-25T18:19:14.394Z,69.84
2022-08-25T18:21:41.805Z,69.88
2022-08-25T18:24:11.987Z,70.02
2022-08-25T18:26:40.800Z,70.48
2022-08-25T18:29:12.518Z,70.35
2022-08-25T18:31:42.121Z,70.70
2022-08-25T18:34:11.432Z,70.78
2022-08-25T18:36:39.528Z,71.29
2022-08-25T18:39:26.463Z,71.38
2022-08-25T18:41:53.898Z,71.84
2022-08-25T18:44:21.307Z,71.92
2022-08-25T18:46:48.816Z,72.17
2022-08-25T18:49:17.591Z,72.28
2022-08-25T18:51:46.537Z,72.50
2022-08-25T18:54:22.753Z,73.26
2022-08-25T18:56:54.834Z,73.26
2022-08-25T18:59:23.796Z,73.54
2022-08-25T19:01:54.293Z,73.89
2022-08-25T19:04:28.406Z,73.91
2022-08-25T19:07:00.203Z,74.38
2022-08-25T19:09:27.390Z,75.05
2022-08-25T19:11:55.919Z,75.39
2022-08-25T19:14:23.540Z,75.76
2022-08-25T19:16:54.585Z,76.06
2022-08-25T19:19:23.195Z,75.92
2022-08-25T19:21:50.851Z,76.54
2022-08-25T19:24:18.655Z,76.63
2022-08-25T19:26:46.558Z,76.84
2022-08-25T19:29:17.511Z,77.33
2022-08-25T19:31:47.835Z,77.61
2022-08-25T19:34:19.576Z,77.87
2022-08-25T19:36:48.067Z,77.79
2022-08-25T19:39:16.435Z,78.15
2022-08-25T19:41:44.755Z,78.47
2022-08-25T19:44:12.852Z,78.49
2022-08-25T19:46:42.910Z,78.64
2022-08-25T19:49:12.421Z,78.79
2022-08-25T19:51:43.878Z,79.02
2022-08-25T19:54:15.739Z,79.38
2022-08-25T19:56:54.442Z,79.47
2022-08-25T19:59:34.221Z,79.78
2022-08-25T20:02:09.955Z,80.40
2022-08-25T20:04:38.050Z,80.60
2022-08-25T20:07:07.098Z,80.91
2022-08-25T20:09:40.770Z,81.06
2022-08-25T20:12:11.423Z,81.21
2022-08-25T20:14:39.609Z,81.50
2022-08-25T20:17:14.445Z,81.86
2022-08-25T20:19:51.096Z,81.98
2022-08-25T20:22:19.949Z,82.37
2022-08-25T20:24:49.636Z,82.45
2022-08-25T20:27:35.855Z,82.62
2022-08-25T20:30:08.438Z,82.97
2022-08-25T20:32:36.981Z,82.92
2022-08-25T20:35:08.873Z,83.26
2022-08-25T20:37:36.818Z,83.38
2022-08-25T20:40:05.826Z,83.57
2022-08-25T20:42:33.140Z,83.94
2022-08-25T20:45:00.979Z,83.96
2022-08-25T20:47:28.417Z,84.57
2022-08-25T20:49:55.689Z,84.81
2022-08-25T20:52:23.138Z,85.12
2022-08-25T20:54:51.832Z,85.10
2022-08-25T20:57:24.499Z,85.44
2022-08-25T20:59:53.585Z,86.16
2022-08-25T21:02:21.567Z,86.42
2022-08-25T21:04:49.123Z,87.23
2022-08-25T21:07:18.847Z,87.79
2022-08-25T21:09:46.517Z,88.16
2022-08-25T21:12:15.028Z,88.54
2022-08-25T21:14:42.678Z,88.73
2022-08-25T21:17:14.587Z,88.97
2022-08-25T21:19:42.573Z,89.36
2022-08-25T21:22:11.066Z,89.77
2022-08-25T21:24:38.709Z,90.03
2022-08-25T21:27:06.498Z,90.32
2022-08-25T21:29:33.997Z,90.06
2022-08-25T21:32:02.139Z,90.20
2022-08-25T21:34:29.696Z,90.10
2022-08-25T21:37:00.101Z,90.02
2022-08-25T21:39:29.766Z,89.88
2022-08-25T21:42:00.420Z,89.84
2022-08-25T21:44:28.834Z,90.08
2022-08-25T21:46:56.770Z,89.97
2022-08-25T21:49:25.263Z,90.20
2022-08-25T21:52:00.983Z,90.50
2022-08-25T21:54:29.857Z,90.70
2022-08-25T21:57:00.487Z,90.88
2022-08-25T21:59:30.626Z,91.13
2022-08-25T22:02:01.122Z,91.29
2022-08-25T22:04:29.719Z,91.70
2022-08-25T22:06:58.395Z,92.20
2022-08-25T22:09:28.183Z,92.34
2022-08-25T22:11:55.898Z,92.29
2022-08-25T22:14:24.505Z,92.23
2022-08-25T22:16:54.605Z,92.20
2022-08-25T22:19:22.828Z,92.37
2022-08-25T22:21:51.699Z,92.49
2022-08-25T22:24:19.652Z,92.41
2022-08-25T22:26:48.599Z,92.48
2022-08-25T22:29:24.774Z,92.29
2022-08-25T22:31:59.975Z,92.04
2022-08-25T22:34:32.862Z,92.10
2022-08-25T22:37:04.576Z,92.12
2022-08-25T22:39:34.358Z,92.07
2022-08-25T22:42:03.025Z,91.95
2022-08-25T22:44:30.427Z,92.01
2022-08-25T22:46:57.584Z,92.05
2022-08-25T22:49:28.983Z,92.32
2022-08-25T22:51:56.327Z,92.24
2022-08-25T22:54:25.523Z,92.68
2022-08-25T22:56:53.682Z,92.64
2022-08-25T22:59:22.059Z,92.78
2022-08-25T23:01:52.694Z,92.70
2022-08-25T23:04:22.256Z,92.89
2022-08-25T23:06:50.090Z,92.55
2022-08-25T23:09:17.263Z,92.28
2022-08-25T23:11:44.618Z,92.26
2022-08-25T23:14:13.071Z,92.15
2022-08-25T23:16:42.136Z,92.19
2022-08-25T23:19:13.735Z,92.17
2022-08-25T23:22:01.317Z,92.21
2022-08-25T23:24:30.298Z,92.02
2022-08-25T23:26:59.808Z,92.36
2022-08-25T23:29:28.965Z,92.30
2022-08-25T23:31:56.798Z,92.36
2022-08-25T23:34:25.536Z,92.26
2022-08-25T23:36:53.185Z,92.05
2022-08-25T23:39:21.775Z,92.08
2022-08-25T23:41:50.574Z,92.25
2022-08-25T23:44:19.217Z,92.15
2022-08-25T23:46:47.907Z,92.29
2022-08-25T23:49:18.377Z,92.43
2022-08-25T23:51:51.841Z,92.45
2022-08-25T23:54:20.935Z,92.74
2022-08-25T23:56:52.205Z,92.52
2022-08-25T23:59:24.367Z,92.79
